Fivepointville, Pennsylvania
Current Conditions -  °F | °C
As of 10:53 PM on Thursday 27 Nov 2014 (Local Time) from KLNS Reporting Station
Haze Haze  
Wind Chill: 23°   Ceiling: 8500
Heat Index: 29°   Visibility: 6mi
Dew Point: 27°   Wind: 6mph
Humidity: 92%   Direction: 300°WNW
Pressure: 30.11"   Gusts: NA
Location:  40.2429°N, 76.1265°W
Report Text: KLNS 280353Z 30005KT 6SM BR FEW042 SCT055 OVC085 M02/M03 A3011 RMK AO2 SLP200 T10171028
Loading
Personal Weather Stations






























Interactive Weather Map New forecast layout! Learn more

10-Day Weather Forecast

Advertisements
Track Severe Weather on mobile